createdAt,value
2019-02-21T00:01:35.708Z,94.02
2019-02-21T00:03:35.685Z,94.25
2019-02-21T00:05:35.446Z,94.39
2019-02-21T00:07:35.435Z,94.23
2019-02-21T00:09:35.854Z,94.58
2019-02-21T00:11:35.453Z,94.59
2019-02-21T00:13:35.505Z,94.49
2019-02-21T00:15:35.786Z,94.48
2019-02-21T00:17:35.537Z,94.86
2019-02-21T00:19:35.542Z,94.57
2019-02-21T00:21:35.819Z,94.81
2019-02-21T00:23:35.626Z,94.96
2019-02-21T00:25:35.641Z,94.90
2019-02-21T00:27:35.788Z,94.97
2019-02-21T00:29:35.459Z,95.21
2019-02-21T00:31:35.470Z,95.22
2019-02-21T00:33:35.638Z,95.38
2019-02-21T00:35:35.805Z,95.38
2019-02-21T00:37:35.614Z,95.37
2019-02-21T00:39:36.031Z,95.19
2019-02-21T00:41:35.836Z,95.21
2019-02-21T00:43:35.802Z,95.25
2019-02-21T00:45:36.273Z,95.61
2019-02-21T00:47:35.672Z,95.33
2019-02-21T00:49:35.714Z,95.36
2019-02-21T00:51:35.998Z,95.38
2019-02-21T00:53:35.683Z,95.43
2019-02-21T00:55:35.441Z,95.90
2019-02-21T00:57:35.587Z,95.82
2019-02-21T00:59:35.533Z,95.88
2019-02-21T01:01:35.855Z,96.01
2019-02-21T01:03:35.814Z,96.45
2019-02-21T01:05:35.673Z,96.15
2019-02-21T01:07:35.723Z,96.46
2019-02-21T01:09:36.034Z,96.38
2019-02-21T01:11:36.110Z,96.54
2019-02-21T01:13:35.682Z,96.56
2019-02-21T01:15:35.725Z,96.52
2019-02-21T01:17:35.740Z,96.52
2019-02-21T01:19:35.963Z,96.79
2019-02-21T01:21:35.862Z,96.37
2019-02-21T01:23:35.563Z,96.58
2019-02-21T01:25:35.985Z,96.70
2019-02-21T01:27:35.837Z,96.61
2019-02-21T01:29:35.883Z,96.51
2019-02-21T01:31:35.765Z,96.65
2019-02-21T01:33:35.706Z,96.58
2019-02-21T01:35:35.531Z,96.81
2019-02-21T01:37:35.545Z,96.78
2019-02-21T01:39:35.760Z,96.99
2019-02-21T01:41:35.771Z,96.85
2019-02-21T01:43:35.812Z,96.98
2019-02-21T01:45:35.574Z,96.95
2019-02-21T01:47:35.862Z,97.23
2019-02-21T01:49:35.730Z,97.19
2019-02-21T01:51:35.734Z,97.01
2019-02-21T01:53:35.842Z,97.20
2019-02-21T01:55:36.098Z,97.46
2019-02-21T01:57:36.279Z,97.02
2019-02-21T01:59:35.797Z,97.17
2019-02-21T02:01:36.091Z,97.16
2019-02-21T02:03:35.676Z,97.10
2019-02-21T02:05:35.909Z,97.24
2019-02-21T02:07:35.714Z,97.24
2019-02-21T02:09:35.735Z,97.46
2019-02-21T02:11:35.744Z,97.30
2019-02-21T02:13:35.748Z,97.28
2019-02-21T02:15:35.525Z,97.37
2019-02-21T02:17:35.776Z,97.46
2019-02-21T02:19:35.886Z,97.59
2019-02-21T02:21:35.851Z,97.71
2019-02-21T02:23:35.656Z,97.62
2019-02-21T02:25:35.721Z,97.46
2019-02-21T02:27:35.728Z,97.65
2019-02-21T02:29:35.955Z,97.78
2019-02-21T02:31:35.758Z,97.85
2019-02-21T02:33:35.718Z,97.86
2019-02-21T02:35:35.783Z,97.87
2019-02-21T02:37:35.521Z,97.94
2019-02-21T02:39:35.722Z,97.87
2019-02-21T02:41:36.125Z,97.84
2019-02-21T02:43:35.702Z,98.04
2019-02-21T02:45:35.782Z,97.79
2019-02-21T02:47:35.592Z,97.92
2019-02-21T02:49:35.604Z,97.88
2019-02-21T02:51:35.905Z,97.99
2019-02-21T02:53:35.580Z,97.88
2019-02-21T02:55:35.797Z,97.82
2019-02-21T02:57:35.807Z,98.02
2019-02-21T02:59:41.007Z,97.71
2019-02-21T03:01:35.826Z,98.08
2019-02-21T03:03:35.801Z,97.87
2019-02-21T03:05:35.558Z,98.11
2019-02-21T03:07:35.757Z,98.04
2019-02-21T03:09:36.074Z,98.10
2019-02-21T03:11:35.859Z,98.40
2019-02-21T03:13:35.656Z,98.44
2019-02-21T03:15:35.704Z,98.31
2019-02-21T03:17:35.837Z,98.56
2019-02-21T03:19:35.825Z,98.54
2019-02-21T03:21:35.837Z,98.38
2019-02-21T03:23:35.614Z,98.18
2019-02-21T03:25:35.901Z,98.25
2019-02-21T03:27:35.977Z,98.60
2019-02-21T03:29:35.760Z,98.59
2019-02-21T03:31:52.612Z,98.72
2019-02-21T03:33:35.841Z,98.56
2019-02-21T03:35:35.713Z,98.57
2019-02-21T03:37:35.932Z,98.61
2019-02-21T03:39:35.873Z,98.86
2019-02-21T03:41:35.622Z,98.56
2019-02-21T03:43:35.876Z,98.69
2019-02-21T03:45:35.979Z,98.66
2019-02-21T03:47:35.709Z,98.73
2019-02-21T03:49:35.711Z,98.72
2019-02-21T03:51:35.783Z,98.84
2019-02-21T03:53:35.974Z,99.13
2019-02-21T03:55:35.953Z,98.80
2019-02-21T03:57:36.057Z,99.07
2019-02-21T03:59:35.561Z,98.95
2019-02-21T04:01:35.763Z,98.81
2019-02-21T04:03:35.758Z,98.88
2019-02-21T04:05:35.989Z,99.06
2019-02-21T04:07:36.009Z,99.02
2019-02-21T04:09:36.225Z,98.90
2019-02-21T04:11:36.130Z,98.85
2019-02-21T04:13:35.829Z,99.07
2019-02-21T04:15:36.047Z,98.97
2019-02-21T04:17:35.982Z,99.14
2019-02-21T04:19:35.713Z,99.08
2019-02-21T04:21:35.674Z,99.24
2019-02-21T04:23:35.636Z,99.30
2019-02-21T04:25:35.902Z,99.15
2019-02-21T04:27:35.708Z,99.50
2019-02-21T04:29:36.022Z,99.38
2019-02-21T04:31:36.037Z,99.39
2019-02-21T04:33:35.828Z,99.33
2019-02-21T04:35:35.857Z,99.57
2019-02-21T04:37:35.956Z,99.44
2019-02-21T04:39:35.677Z,99.39
2019-02-21T04:41:35.661Z,99.39
2019-02-21T04:43:36.110Z,99.15
2019-02-21T04:45:36.020Z,99.35
2019-02-21T04:47:35.719Z,99.24
2019-02-21T04:49:35.794Z,99.27
2019-02-21T04:51:35.849Z,99.29
2019-02-21T04:53:35.755Z,99.27
2019-02-21T04:55:35.763Z,99.32
2019-02-21T04:57:35.781Z,99.49
2019-02-21T04:59:36.408Z,99.59
2019-02-21T05:01:35.799Z,99.63
2019-02-21T05:03:35.938Z,99.45
2019-02-21T05:05:35.939Z,99.49
2019-02-21T05:07:36.045Z,99.27
2019-02-21T05:09:35.983Z,99.40
2019-02-21T05:11:36.067Z,99.67
2019-02-21T05:13:36.077Z,99.51
2019-02-21T05:15:35.991Z,99.53
2019-02-21T05:17:35.808Z,99.49
2019-02-21T05:19:36.214Z,99.83
2019-02-21T05:21:36.226Z,99.51
2019-02-21T05:23:36.805Z,99.66
2019-02-21T05:25:35.943Z,99.52
2019-02-21T05:27:36.182Z,99.86
2019-02-21T05:29:36.267Z,99.67
2019-02-21T05:31:35.950Z,99.71
2019-02-21T05:33:35.883Z,99.52
2019-02-21T05:35:35.805Z,99.50
2019-02-21T05:37:35.808Z,100.00
2019-02-21T05:39:36.133Z,100.00
2019-02-21T05:41:36.008Z,99.85
2019-02-21T05:43:37.269Z,100.00
2019-02-21T05:45:36.276Z,99.70
2019-02-21T05:47:36.171Z,100.00
2019-02-21T05:49:35.794Z,100.00
2019-02-21T05:51:35.991Z,99.93
2019-02-21T05:53:35.956Z,99.81
2019-02-21T05:55:36.217Z,100.00
2019-02-21T05:57:35.946Z,100.00
2019-02-21T05:59:35.851Z,99.94
2019-02-21T06:01:35.947Z,100.00
2019-02-21T06:03:36.213Z,100.00
2019-02-21T06:05:36.275Z,100.00
2019-02-21T06:07:36.089Z,100.00
2019-02-21T06:09:35.966Z,100.00
2019-02-21T06:11:36.003Z,100.00
2019-02-21T06:13:35.805Z,100.00
2019-02-21T06:15:35.858Z,100.00
2019-02-21T06:17:35.970Z,100.00
2019-02-21T06:19:35.953Z,100.00
2019-02-21T06:21:36.052Z,100.00
2019-02-21T06:23:35.867Z,100.00
2019-02-21T06:25:35.801Z,100.00
2019-02-21T06:27:38.100Z,100.00
2019-02-21T06:29:36.078Z,100.00
2019-02-21T06:31:35.930Z,100.00
2019-02-21T06:33:35.814Z,100.00
2019-02-21T06:35:36.106Z,100.00
2019-02-21T06:37:37.797Z,100.00
2019-02-21T06:39:35.978Z,100.00
2019-02-21T06:41:35.896Z,100.00
2019-02-21T06:43:35.985Z,100.00
2019-02-21T06:45:36.146Z,100.00
2019-02-21T06:47:35.904Z,100.00
2019-02-21T06:49:35.879Z,100.00
2019-02-21T06:51:36.147Z,100.00
2019-02-21T06:53:35.775Z,100.00
2019-02-21T06:55:35.953Z,100.00
2019-02-21T06:57:36.428Z,100.00
2019-02-21T06:59:43.293Z,100.00
2019-02-21T07:01:36.192Z,100.00
2019-02-21T07:03:35.897Z,100.00
2019-02-21T07:05:36.990Z,100.00
2019-02-21T07:07:36.428Z,100.00
2019-02-21T07:09:35.994Z,100.00
2019-02-21T07:11:35.788Z,100.00
2019-02-21T07:13:35.938Z,100.00
2019-02-21T07:15:36.184Z,100.00
2019-02-21T07:17:35.974Z,100.00
2019-02-21T07:19:35.990Z,100.00
2019-02-21T07:21:36.707Z,100.00
2019-02-21T07:23:43.120Z,100.00
2019-02-21T07:25:35.915Z,100.00
2019-02-21T07:27:35.926Z,99.79
2019-02-21T07:29:38.119Z,99.44
2019-02-21T07:31:35.953Z,99.07
2019-02-21T07:33:36.043Z,98.80
2019-02-21T07:35:35.827Z,98.73
2019-02-21T07:37:36.091Z,98.93
2019-02-21T07:39:36.518Z,98.40
2019-02-21T07:41:36.215Z,97.73
2019-02-21T07:43:36.123Z,97.80
2019-02-21T07:45:36.461Z,97.67
2019-02-21T07:47:36.037Z,96.70
2019-02-21T07:49:35.794Z,95.50
2019-02-21T07:51:36.272Z,95.39
2019-02-21T07:53:35.880Z,95.13
2019-02-21T07:55:35.907Z,94.38
2019-02-21T07:57:36.415Z,94.26
2019-02-21T07:59:36.010Z,94.37
2019-02-21T08:01:36.024Z,94.35
2019-02-21T08:05:35.940Z,94.19
2019-02-21T08:07:36.257Z,94.03
2019-02-21T08:09:36.273Z,94.52
2019-02-21T08:11:36.279Z,94.22
2019-02-21T08:13:36.090Z,94.10
2019-02-21T08:15:36.404Z,94.26
2019-02-21T08:17:36.006Z,94.29
2019-02-21T08:19:36.167Z,94.33
2019-02-21T08:21:36.099Z,93.87
2019-02-21T08:23:35.944Z,94.16
2019-02-21T08:25:36.061Z,93.88
2019-02-21T08:27:36.124Z,94.29
2019-02-21T08:29:35.956Z,94.27
2019-02-21T08:31:35.944Z,94.19
2019-02-21T08:33:36.203Z,94.11
2019-02-21T08:35:36.116Z,94.07
2019-02-21T08:37:36.100Z,93.51
2019-02-21T08:39:35.991Z,93.84
2019-02-21T08:41:36.122Z,93.65
2019-02-21T08:43:37.290Z,93.44
2019-02-21T08:45:36.094Z,93.22
2019-02-21T08:47:35.920Z,93.26
2019-02-21T08:49:36.187Z,93.00
2019-02-21T08:51:36.149Z,93.28
2019-02-21T08:53:36.303Z,92.64
2019-02-21T08:55:35.925Z,92.34
2019-02-21T08:57:36.249Z,92.02
2019-02-21T08:59:36.254Z,92.26
2019-02-21T09:01:36.478Z,92.19
2019-02-21T09:03:36.480Z,91.99
2019-02-21T09:05:36.082Z,91.58
2019-02-21T09:07:36.194Z,91.17
2019-02-21T09:09:36.210Z,91.26
2019-02-21T09:11:36.223Z,90.91
2019-02-21T09:13:36.331Z,90.76
2019-02-21T09:15:36.113Z,90.92
2019-02-21T09:17:36.149Z,90.86
2019-02-21T09:19:36.837Z,90.56
2019-02-21T09:21:35.939Z,90.53
2019-02-21T09:23:36.166Z,90.23
2019-02-21T09:25:36.060Z,90.14
2019-02-21T09:27:36.207Z,89.75
2019-02-21T09:29:35.931Z,89.10
2019-02-21T09:31:36.026Z,88.83
2019-02-21T09:33:37.253Z,88.22
2019-02-21T09:35:36.250Z,88.50
2019-02-21T09:37:36.332Z,88.09
2019-02-21T09:39:36.358Z,88.26
2019-02-21T09:41:36.393Z,87.72
2019-02-21T09:43:36.147Z,87.34
2019-02-21T09:45:36.213Z,87.41
2019-02-21T09:47:36.130Z,87.27
2019-02-21T09:49:36.442Z,86.70
2019-02-21T09:51:36.702Z,86.70
2019-02-21T09:53:36.045Z,86.75
2019-02-21T09:55:36.222Z,86.63
2019-02-21T09:57:36.318Z,86.90
2019-02-21T09:59:35.920Z,86.80
2019-02-21T10:01:36.200Z,86.54
2019-02-21T10:03:36.216Z,86.18
2019-02-21T10:05:36.232Z,86.36
2019-02-21T10:07:37.123Z,86.50
2019-02-21T10:09:35.978Z,86.18
2019-02-21T10:11:36.267Z,86.23
2019-02-21T10:13:36.682Z,86.38
2019-02-21T10:15:36.019Z,86.05
2019-02-21T10:17:36.091Z,86.22
2019-02-21T10:19:36.160Z,86.39
2019-02-21T10:21:36.217Z,85.93
2019-02-21T10:23:36.223Z,85.80
2019-02-21T10:25:36.167Z,85.29
2019-02-21T10:27:36.145Z,84.89
2019-02-21T10:29:36.162Z,85.19
2019-02-21T10:31:36.378Z,84.80
2019-02-21T10:33:46.290Z,84.58
2019-02-21T10:35:36.603Z,83.73
2019-02-21T10:37:36.170Z,83.91
2019-02-21T10:39:36.169Z,83.38
2019-02-21T10:41:36.639Z,83.62
2019-02-21T10:43:36.137Z,83.30
2019-02-21T10:45:47.087Z,83.16
2019-02-21T10:47:36.156Z,83.34
2019-02-21T10:49:36.367Z,83.26
2019-02-21T10:51:36.800Z,83.45
2019-02-21T10:53:36.483Z,83.23
2019-02-21T10:55:36.101Z,82.73
2019-02-21T10:57:36.118Z,83.06
2019-02-21T10:59:46.153Z,82.34
2019-02-21T11:01:36.091Z,82.01
2019-02-21T11:03:36.557Z,81.19
2019-02-21T11:05:36.367Z,81.75
2019-02-21T11:07:36.101Z,81.74
2019-02-21T11:09:36.599Z,80.62
2019-02-21T11:11:36.403Z,80.83
2019-02-21T11:13:36.110Z,81.43
2019-02-21T11:15:36.326Z,80.61
2019-02-21T11:17:36.235Z,80.10
2019-02-21T11:19:36.236Z,79.68
2019-02-21T11:21:36.457Z,79.17
2019-02-21T11:23:36.162Z,79.45
2019-02-21T11:25:36.386Z,79.46
2019-02-21T11:27:36.288Z,79.28
2019-02-21T11:29:36.201Z,79.38
2019-02-21T11:31:36.237Z,78.73
2019-02-21T11:33:36.120Z,78.52
2019-02-21T11:35:36.748Z,78.82
2019-02-21T11:37:44.272Z,78.01
2019-02-21T11:39:36.146Z,76.52
2019-02-21T11:41:37.188Z,76.71
2019-02-21T11:43:36.307Z,76.31
2019-02-21T11:45:36.595Z,76.31
2019-02-21T11:47:36.305Z,77.01
2019-02-21T11:49:36.277Z,77.07
2019-02-21T11:51:36.121Z,77.30
2019-02-21T11:53:38.051Z,77.41
2019-02-21T11:55:36.239Z,77.58
2019-02-21T11:57:36.156Z,77.32
2019-02-21T11:59:36.147Z,77.06
2019-02-21T12:01:36.375Z,75.85
2019-02-21T12:03:36.495Z,75.52
2019-02-21T12:05:36.177Z,73.78
2019-02-21T12:07:36.147Z,74.43
2019-02-21T12:09:36.152Z,74.69
2019-02-21T12:11:36.214Z,73.69
2019-02-21T12:13:36.422Z,72.86
2019-02-21T12:15:36.433Z,73.08
2019-02-21T12:17:36.237Z,72.42
2019-02-21T12:19:36.148Z,72.24
2019-02-21T12:21:36.440Z,73.64
2019-02-21T12:23:36.175Z,73.77
2019-02-21T12:25:36.225Z,74.56
2019-02-21T12:27:36.381Z,75.26
2019-02-21T12:29:36.333Z,76.51
2019-02-21T12:31:36.629Z,76.60
2019-02-21T12:33:36.741Z,76.36
2019-02-21T12:35:36.649Z,75.96
2019-02-21T12:37:36.462Z,76.09
2019-02-21T12:39:36.418Z,76.19
2019-02-21T12:41:36.483Z,75.35
2019-02-21T12:43:36.187Z,74.72
2019-02-21T12:45:36.829Z,74.40
2019-02-21T12:47:36.159Z,73.83
2019-02-21T12:49:36.420Z,74.52
2019-02-21T12:51:36.437Z,74.38
2019-02-21T12:53:36.401Z,74.83
2019-02-21T12:55:36.191Z,75.10
2019-02-21T12:57:36.261Z,74.33
2019-02-21T12:59:36.200Z,74.53
2019-02-21T13:01:36.296Z,74.22
2019-02-21T13:03:36.439Z,74.48
2019-02-21T13:05:41.102Z,74.31
2019-02-21T13:07:36.427Z,74.49
2019-02-21T13:09:36.539Z,74.50
2019-02-21T13:11:36.562Z,74.15
2019-02-21T13:13:36.365Z,73.81
2019-02-21T13:15:36.368Z,72.78
2019-02-21T13:17:36.318Z,72.41
2019-02-21T13:19:36.326Z,71.44
2019-02-21T13:21:36.606Z,72.52
2019-02-21T13:23:36.317Z,71.57
2019-02-21T13:25:36.393Z,71.74
2019-02-21T13:27:36.573Z,71.79
2019-02-21T13:29:36.391Z,71.95
2019-02-21T13:31:36.473Z,72.60
2019-02-21T13:33:36.283Z,72.90
2019-02-21T13:35:36.474Z,72.98
2019-02-21T13:37:36.300Z,73.97
2019-02-21T13:39:36.587Z,73.86
2019-02-21T13:41:36.511Z,73.99
2019-02-21T13:43:36.601Z,72.95
2019-02-21T13:45:36.408Z,73.28
2019-02-21T13:47:39.131Z,73.17
2019-02-21T13:49:36.631Z,73.70
2019-02-21T13:51:36.858Z,73.15
2019-02-21T13:53:36.460Z,72.64
2019-02-21T13:55:36.369Z,72.83
2019-02-21T13:57:36.582Z,72.46
2019-02-21T13:59:36.387Z,71.36
2019-02-21T14:01:36.322Z,71.25
2019-02-21T14:03:36.624Z,71.62
2019-02-21T14:05:36.422Z,71.86
2019-02-21T14:07:37.310Z,71.98
2019-02-21T14:09:37.976Z,71.74
2019-02-21T14:11:36.469Z,71.06
2019-02-21T14:13:36.470Z,71.01
2019-02-21T14:15:36.283Z,70.53
2019-02-21T14:17:36.364Z,70.25
2019-02-21T14:19:36.338Z,69.87
2019-02-21T14:21:36.340Z,68.37
2019-02-21T14:23:36.330Z,68.45
2019-02-21T14:25:40.684Z,68.18
2019-02-21T14:27:36.858Z,68.23
2019-02-21T14:29:39.583Z,68.63
2019-02-21T14:31:36.466Z,67.37
2019-02-21T14:33:36.683Z,67.04
2019-02-21T14:35:36.223Z,67.47
2019-02-21T14:37:36.438Z,66.86
2019-02-21T14:39:36.322Z,66.84
2019-02-21T14:41:37.549Z,65.50
2019-02-21T14:43:36.747Z,64.91
2019-02-21T14:45:36.548Z,65.79
2019-02-21T14:47:36.970Z,66.15
2019-02-21T14:49:36.369Z,66.11
2019-02-21T14:51:36.808Z,66.38
2019-02-21T14:53:36.598Z,66.98
2019-02-21T14:55:36.631Z,67.83
2019-02-21T14:57:41.143Z,67.96
2019-02-21T14:59:36.531Z,69.00
2019-02-21T15:01:36.336Z,69.50
2019-02-21T15:03:36.653Z,70.39
2019-02-21T15:05:36.573Z,71.11
2019-02-21T15:07:36.334Z,71.05
2019-02-21T15:09:36.584Z,71.42
2019-02-21T15:11:36.927Z,72.21
2019-02-21T15:13:36.449Z,72.61
2019-02-21T15:15:36.629Z,72.51
2019-02-21T15:17:36.641Z,72.94
2019-02-21T15:19:37.155Z,73.22
2019-02-21T15:21:36.553Z,73.18
2019-02-21T15:23:37.136Z,73.38
2019-02-21T15:25:36.377Z,73.47
2019-02-21T15:27:36.796Z,73.80
2019-02-21T15:29:39.084Z,73.93
2019-02-21T15:31:38.697Z,73.76
2019-02-21T15:33:36.624Z,74.11
2019-02-21T15:35:36.634Z,74.54
2019-02-21T15:37:36.654Z,74.40
2019-02-21T15:39:36.765Z,74.52
2019-02-21T15:41:38.494Z,75.41
2019-02-21T15:43:36.485Z,75.48
2019-02-21T15:45:36.491Z,75.34
2019-02-21T15:47:36.726Z,75.41
2019-02-21T15:49:36.927Z,75.54
2019-02-21T15:51:36.525Z,75.77
2019-02-21T15:53:36.736Z,75.37
2019-02-21T15:55:37.162Z,75.87
2019-02-21T15:57:37.016Z,75.90
2019-02-21T15:59:36.572Z,75.83
2019-02-21T16:01:46.912Z,76.38
2019-02-21T16:03:36.905Z,76.14
2019-02-21T16:05:36.506Z,76.54
2019-02-21T16:07:36.500Z,76.56
2019-02-21T16:09:36.896Z,76.78
2019-02-21T16:11:36.489Z,76.89
2019-02-21T16:13:37.150Z,77.14
2019-02-21T16:15:37.085Z,77.08
2019-02-21T16:17:37.152Z,77.32
2019-02-21T16:19:36.597Z,77.15
2019-02-21T16:21:36.565Z,77.51
2019-02-21T16:23:36.639Z,77.77
2019-02-21T16:25:36.837Z,77.38
2019-02-21T16:27:36.834Z,77.71
2019-02-21T16:29:36.847Z,77.86
2019-02-21T16:31:36.838Z,77.46
2019-02-21T16:33:36.468Z,77.72
2019-02-21T16:35:36.674Z,77.75
2019-02-21T16:37:36.795Z,78.07
2019-02-21T16:39:36.598Z,77.88
2019-02-21T16:41:36.967Z,78.02
2019-02-21T16:43:36.874Z,78.34
2019-02-21T16:45:43.764Z,78.17
2019-02-21T16:47:37.056Z,78.38
2019-02-21T16:49:36.972Z,78.65
2019-02-21T16:51:36.675Z,78.52
2019-02-21T16:53:36.594Z,78.85
2019-02-21T16:55:37.206Z,78.52
2019-02-21T16:57:37.829Z,79.02
2019-02-21T16:59:36.887Z,78.91
2019-02-21T17:01:36.935Z,79.27
2019-02-21T17:03:36.954Z,79.39
2019-02-21T17:05:36.855Z,79.06
2019-02-21T17:07:36.802Z,79.42
2019-02-21T17:09:36.768Z,79.15
2019-02-21T17:11:38.150Z,79.70
2019-02-21T17:13:36.590Z,79.64
2019-02-21T17:15:36.610Z,79.90
2019-02-21T17:17:36.817Z,80.35
2019-02-21T17:19:37.044Z,80.08
2019-02-21T17:21:36.735Z,80.48
2019-02-21T17:23:36.857Z,80.38
2019-02-21T17:25:36.703Z,80.95
2019-02-21T17:27:36.459Z,80.93
2019-02-21T17:29:37.002Z,81.35
2019-02-21T17:31:37.290Z,81.27
2019-02-21T17:33:36.602Z,81.34
2019-02-21T17:35:36.779Z,81.87
2019-02-21T17:37:36.635Z,82.31
2019-02-21T17:39:36.744Z,82.32
2019-02-21T17:41:36.690Z,82.54
2019-02-21T17:43:36.638Z,82.59
2019-02-21T17:45:36.580Z,83.15
2019-02-21T17:47:37.003Z,83.15
2019-02-21T17:49:37.174Z,83.28
2019-02-21T17:51:36.947Z,83.55
2019-02-21T17:53:37.038Z,83.82
2019-02-21T17:55:37.294Z,84.15
2019-02-21T17:57:37.092Z,84.10
2019-02-21T17:59:37.176Z,84.27
2019-02-21T18:01:37.244Z,84.51
2019-02-21T18:03:37.090Z,84.50
2019-02-21T18:05:37.228Z,84.79
2019-02-21T18:07:37.319Z,84.66
2019-02-21T18:09:37.000Z,84.85
2019-02-21T18:11:37.438Z,85.35
2019-02-21T18:13:37.253Z,85.60
2019-02-21T18:15:37.321Z,85.80
2019-02-21T18:17:37.077Z,86.19
2019-02-21T18:19:36.685Z,86.03
2019-02-21T18:21:36.621Z,86.47
2019-02-21T18:23:36.902Z,86.54
2019-02-21T18:25:37.314Z,87.13
2019-02-21T18:27:37.329Z,86.84
2019-02-21T18:29:37.109Z,87.59
2019-02-21T18:31:37.359Z,87.97
2019-02-21T18:33:36.852Z,88.60
2019-02-21T18:35:36.955Z,88.55
2019-02-21T18:37:46.694Z,88.66
2019-02-21T18:39:37.303Z,88.44
2019-02-21T18:41:37.093Z,88.79
2019-02-21T18:43:37.118Z,88.94
2019-02-21T18:45:36.924Z,89.02
2019-02-21T18:47:37.341Z,89.42
2019-02-21T18:49:37.360Z,89.47
2019-02-21T18:51:37.025Z,89.94
2019-02-21T18:53:37.084Z,89.62
2019-02-21T18:55:37.285Z,89.94
2019-02-21T18:57:38.453Z,90.18
2019-02-21T18:59:37.314Z,90.09
2019-02-21T19:01:37.134Z,90.01
2019-02-21T19:03:37.068Z,90.31
2019-02-21T19:05:37.282Z,90.41
2019-02-21T19:07:37.342Z,90.57
2019-02-21T19:09:37.140Z,90.58
2019-02-21T19:11:37.303Z,90.66
2019-02-21T19:13:37.391Z,90.89
2019-02-21T19:15:37.062Z,90.81
2019-02-21T19:17:37.237Z,91.07
2019-02-21T19:19:36.810Z,91.23
2019-02-21T19:21:36.698Z,91.32
2019-02-21T19:23:36.924Z,91.45
2019-02-21T19:25:37.564Z,91.70
2019-02-21T19:27:37.620Z,91.49
2019-02-21T19:29:36.881Z,91.31
2019-02-21T19:31:36.797Z,91.96
2019-02-21T19:33:37.171Z,91.60
2019-02-21T19:35:36.817Z,91.82
2019-02-21T19:37:37.228Z,91.87
2019-02-21T19:39:36.825Z,92.01
2019-02-21T19:41:36.725Z,92.09
2019-02-21T19:43:36.790Z,91.87
2019-02-21T19:45:37.167Z,92.04
2019-02-21T19:47:37.365Z,92.51
2019-02-21T19:49:36.804Z,92.35
2019-02-21T19:51:36.934Z,92.17
2019-02-21T19:53:36.804Z,92.25
2019-02-21T19:55:36.795Z,92.42
2019-02-21T19:57:37.032Z,92.52
2019-02-21T19:59:37.435Z,92.31
2019-02-21T20:01:36.860Z,92.38
2019-02-21T20:03:36.765Z,92.29
2019-02-21T20:05:36.977Z,92.21
2019-02-21T20:07:37.088Z,92.33
2019-02-21T20:09:37.011Z,92.27
2019-02-21T20:11:36.822Z,92.16
2019-02-21T20:13:37.026Z,92.16
2019-02-21T20:15:37.044Z,91.92
2019-02-21T20:17:37.073Z,91.71
2019-02-21T20:19:36.851Z,91.81
2019-02-21T20:21:36.871Z,91.91
2019-02-21T20:23:36.773Z,91.85
2019-02-21T20:25:37.166Z,91.67
2019-02-21T20:27:36.974Z,91.54
2019-02-21T20:29:36.812Z,91.50
2019-02-21T20:31:36.876Z,91.61
2019-02-21T20:33:36.949Z,91.46
2019-02-21T20:35:36.973Z,91.21
2019-02-21T20:37:36.760Z,91.55
2019-02-21T20:39:36.768Z,91.68
2019-02-21T20:41:36.778Z,91.53
2019-02-21T20:43:36.891Z,91.45
2019-02-21T20:45:36.903Z,91.23
2019-02-21T20:47:36.678Z,91.44
2019-02-21T20:49:37.043Z,91.63
2019-02-21T20:51:36.974Z,91.49
2019-02-21T20:53:36.682Z,91.59
2019-02-21T20:55:43.368Z,91.60
2019-02-21T20:57:37.079Z,91.65
2019-02-21T20:59:36.750Z,91.60
2019-02-21T21:01:36.941Z,91.61
2019-02-21T21:03:36.911Z,91.73
2019-02-21T21:05:36.925Z,91.47
2019-02-21T21:07:36.683Z,91.97
2019-02-21T21:09:36.947Z,92.03
2019-02-21T21:11:36.825Z,91.68
2019-02-21T21:13:37.062Z,91.70
2019-02-21T21:15:37.083Z,91.85
2019-02-21T21:17:36.967Z,91.89
2019-02-21T21:19:37.207Z,91.78
2019-02-21T21:21:36.803Z,92.01
2019-02-21T21:23:36.936Z,92.08
2019-02-21T21:25:36.938Z,92.01
2019-02-21T21:27:36.861Z,92.26
2019-02-21T21:29:36.859Z,92.04
2019-02-21T21:31:36.967Z,92.15
2019-02-21T21:33:37.081Z,92.38
2019-02-21T21:35:36.967Z,92.29
2019-02-21T21:37:37.004Z,93.17
2019-02-21T21:39:36.908Z,93.33
2019-02-21T21:41:36.854Z,92.80
2019-02-21T21:43:36.998Z,92.87
2019-02-21T21:45:36.949Z,92.72
2019-02-21T21:47:36.763Z,92.95
2019-02-21T21:49:36.970Z,93.03
2019-02-21T21:51:36.773Z,92.83
2019-02-21T21:53:36.796Z,92.99
2019-02-21T21:55:37.007Z,92.60
2019-02-21T21:57:37.221Z,92.44
2019-02-21T21:59:37.232Z,91.81
2019-02-21T22:01:36.956Z,91.69
2019-02-21T22:03:36.825Z,91.37
2019-02-21T22:05:37.065Z,90.87
2019-02-21T22:07:36.974Z,90.34
2019-02-21T22:09:36.762Z,89.84
2019-02-21T22:11:36.942Z,89.67
2019-02-21T22:13:36.971Z,89.02
2019-02-21T22:15:37.020Z,88.87
2019-02-21T22:17:36.804Z,87.96
2019-02-21T22:19:37.040Z,87.40
2019-02-21T22:21:37.050Z,87.54
2019-02-21T22:23:36.966Z,86.91
2019-02-21T22:25:37.398Z,86.60
2019-02-21T22:27:36.888Z,86.31
2019-02-21T22:29:37.057Z,86.13
2019-02-21T22:31:37.059Z,85.50
2019-02-21T22:33:37.068Z,85.48
2019-02-21T22:35:37.138Z,84.96
2019-02-21T22:37:36.884Z,84.69
2019-02-21T22:39:37.360Z,84.80
2019-02-21T22:41:36.966Z,84.45
2019-02-21T22:43:37.175Z,84.39
2019-02-21T22:45:36.991Z,84.59
2019-02-21T22:47:37.097Z,84.33
2019-02-21T22:49:37.214Z,83.93
2019-02-21T22:51:37.127Z,84.06
2019-02-21T22:53:36.886Z,84.28
2019-02-21T22:55:37.041Z,83.93
2019-02-21T22:57:36.771Z,84.10
2019-02-21T22:59:36.961Z,84.42
2019-02-21T23:01:37.114Z,84.46
2019-02-21T23:03:36.993Z,84.39
2019-02-21T23:05:36.950Z,84.33
2019-02-21T23:07:37.013Z,84.49
2019-02-21T23:09:36.959Z,84.90
2019-02-21T23:11:36.904Z,85.37
2019-02-21T23:13:37.083Z,84.94
2019-02-21T23:15:37.004Z,85.22
2019-02-21T23:17:37.170Z,85.39
2019-02-21T23:19:36.982Z,85.55
2019-02-21T23:21:36.892Z,85.27
2019-02-21T23:23:37.060Z,85.68
2019-02-21T23:25:36.892Z,85.87
2019-02-21T23:27:37.206Z,86.15
2019-02-21T23:29:37.247Z,86.20
2019-02-21T23:31:37.046Z,86.19
2019-02-21T23:33:37.134Z,86.26
2019-02-21T23:35:37.052Z,86.05
2019-02-21T23:37:37.181Z,86.58
2019-02-21T23:39:38.634Z,86.79
2019-02-21T23:41:37.005Z,86.93
2019-02-21T23:43:37.351Z,86.28
2019-02-21T23:45:36.962Z,86.66
2019-02-21T23:47:37.202Z,86.72
2019-02-21T23:49:37.051Z,86.61
2019-02-21T23:51:37.212Z,86.73
2019-02-21T23:53:36.896Z,86.58
2019-02-21T23:55:36.980Z,86.78
2019-02-21T23:57:36.994Z,87.21
2019-02-21T23:59:37.118Z,87.22
